createdAt,value
2023-01-12T07:29:07.743Z,20.79
2023-01-12T07:29:23.698Z,20.84
2023-01-12T07:29:38.695Z,20.84
2023-01-12T07:29:53.711Z,20.87
2023-01-12T07:30:08.711Z,20.90
2023-01-12T07:30:23.706Z,20.90
2023-01-12T07:30:38.716Z,20.92
2023-01-12T07:30:53.758Z,20.94
2023-01-12T07:31:08.805Z,20.95
2023-01-12T07:31:23.795Z,20.97
2023-01-12T07:31:38.738Z,20.98
2023-01-12T07:31:53.729Z,20.99
2023-01-12T07:32:08.741Z,21.00
2023-01-12T07:32:23.746Z,21.02
2023-01-12T07:32:38.780Z,21.02
2023-01-12T07:32:53.772Z,21.03
2023-01-12T07:33:08.761Z,21.05
2023-01-12T07:33:23.776Z,21.05
2023-01-12T07:33:38.753Z,21.06
2023-01-12T07:33:53.779Z,21.06
2023-01-12T07:42:36.155Z,20.11
2023-01-12T07:42:50.021Z,20.34
2023-01-12T07:43:03.894Z,20.36
2023-01-12T07:43:17.767Z,20.38
2023-01-12T07:43:31.661Z,20.39
2023-01-12T07:43:45.524Z,20.41
2023-01-12T07:43:59.387Z,20.41
2023-01-12T07:44:13.269Z,20.43
2023-01-12T07:44:27.137Z,20.43
2023-01-12T07:44:40.995Z,20.45
2023-01-12T07:44:54.907Z,20.46
2023-01-12T07:45:27.988Z,20.24
2023-01-12T07:45:41.849Z,20.47
2023-01-12T07:45:55.701Z,20.50
2023-01-12T07:46:09.699Z,20.50
2023-01-12T07:46:23.662Z,20.55
2023-01-12T07:46:37.666Z,20.59
2023-01-12T07:46:51.557Z,20.65
2023-01-12T07:47:05.425Z,20.71
2023-01-12T07:48:08.427Z,20.67
2023-01-12T07:48:22.290Z,20.91
2023-01-12T07:48:36.154Z,20.93
2023-01-12T07:48:50.026Z,20.96
2023-01-12T07:49:03.888Z,20.96
2023-01-12T07:49:17.754Z,20.97
2023-01-12T07:49:31.629Z,20.95
2023-01-12T07:49:45.515Z,20.95
2023-01-12T07:49:59.388Z,20.94
2023-01-12T07:50:13.259Z,20.94
2023-01-12T07:50:27.132Z,20.96
2023-01-12T07:50:40.998Z,20.99
2023-01-12T07:50:54.932Z,21.00
2023-01-12T07:51:08.865Z,21.01
2023-01-12T07:51:22.750Z,21.02
2023-01-12T07:51:36.620Z,21.02
2023-01-12T07:51:50.486Z,21.01
2023-01-12T07:52:04.353Z,21.01
2023-01-12T07:52:18.224Z,21.00
2023-01-12T07:52:32.097Z,21.00
2023-01-12T07:52:45.980Z,20.99
2023-01-12T07:52:59.853Z,21.00
2023-01-12T07:53:13.721Z,20.99
2023-01-12T07:53:27.596Z,20.99
2023-01-12T07:53:41.478Z,20.98
2023-01-12T07:53:55.352Z,20.98
2023-01-12T07:54:09.228Z,20.97
2023-01-12T07:54:23.122Z,20.96
2023-01-12T07:54:36.984Z,20.96
2023-01-12T07:54:50.862Z,20.96
2023-01-12T07:55:04.744Z,20.96
2023-01-12T07:55:18.623Z,20.97
2023-01-12T07:55:32.524Z,20.98
2023-01-12T07:55:46.388Z,20.98
2023-01-12T07:56:00.256Z,21.00
2023-01-12T07:56:14.156Z,20.99
2023-01-12T07:56:28.085Z,21.00
2023-01-12T07:56:44.180Z,20.99
2023-01-12T07:56:55.675Z,21.00
2023-01-12T07:57:09.538Z,21.01
2023-01-12T07:57:23.407Z,21.01
2023-01-12T07:57:37.294Z,21.01
2023-01-12T07:57:51.172Z,21.01
2023-01-12T07:58:05.025Z,21.01
2023-01-12T07:58:18.878Z,21.02
2023-01-12T07:58:32.754Z,21.01
2023-01-12T07:58:46.633Z,21.02
2023-01-12T07:59:00.507Z,21.01
2023-01-12T07:59:14.392Z,21.02
2023-01-12T07:59:28.256Z,21.01
2023-01-12T07:59:42.118Z,21.02
2023-01-12T07:59:56.011Z,21.02
2023-01-12T08:00:09.875Z,20.99
2023-01-12T08:00:23.741Z,21.00
2023-01-12T08:00:37.617Z,20.99
2023-01-12T08:00:51.571Z,20.99
2023-01-12T08:01:05.497Z,20.99
2023-01-12T08:01:19.488Z,20.98
2023-01-12T08:01:33.608Z,20.97
2023-01-12T08:01:47.580Z,20.97
2023-01-12T08:02:01.525Z,20.98
2023-01-12T08:02:15.416Z,20.97
2023-01-12T08:02:29.329Z,20.98
2023-01-12T08:02:43.194Z,20.98
2023-01-12T08:02:57.080Z,20.99
2023-01-12T08:03:10.960Z,21.00
2023-01-12T08:03:24.849Z,20.99
2023-01-12T08:03:38.742Z,21.00
2023-01-12T08:03:52.610Z,20.99
2023-01-12T08:04:06.474Z,20.98
2023-01-12T08:04:20.349Z,20.99
2023-01-12T08:04:34.209Z,21.00
2023-01-12T08:04:48.079Z,21.00
2023-01-12T08:05:15.880Z,20.97
2023-01-12T08:05:29.854Z,20.97
2023-01-12T08:05:43.902Z,20.96
2023-01-12T08:05:57.808Z,20.97
2023-01-12T08:06:11.658Z,20.96
2023-01-12T08:06:25.524Z,20.96
2023-01-12T08:06:39.378Z,20.98
2023-01-12T08:06:53.271Z,20.97
2023-01-12T08:07:07.121Z,20.98
2023-01-12T08:07:20.982Z,20.98
2023-01-12T08:07:34.828Z,20.99
2023-01-12T08:07:48.713Z,20.97
2023-01-12T08:08:03.679Z,20.97
2023-01-12T08:08:15.120Z,20.97
2023-01-12T08:08:28.984Z,20.98
2023-01-12T08:08:42.903Z,20.98
2023-01-12T08:08:56.769Z,20.97
2023-01-12T08:09:10.623Z,20.96
2023-01-12T08:09:24.502Z,20.95
2023-01-12T08:09:38.389Z,20.95
2023-01-12T08:09:52.253Z,20.93
2023-01-12T08:10:06.117Z,20.94
2023-01-12T08:10:19.976Z,20.95
2023-01-12T08:10:33.876Z,20.93
2023-01-12T08:10:47.756Z,20.93
2023-01-12T08:11:01.636Z,20.92
2023-01-12T08:11:15.516Z,20.92
2023-01-12T08:11:29.416Z,20.91
2023-01-12T08:11:43.281Z,20.90
2023-01-12T08:11:57.153Z,20.90
2023-01-12T08:12:24.867Z,20.82
2023-01-12T08:12:38.734Z,20.80
2023-01-12T08:12:52.593Z,20.79
2023-01-12T08:13:06.471Z,20.78
2023-01-12T08:13:20.389Z,20.78
2023-01-12T08:13:34.259Z,20.77
2023-01-12T08:13:48.124Z,20.77
2023-01-12T08:14:01.997Z,20.77
2023-01-12T08:14:15.859Z,20.77
2023-01-12T08:14:29.732Z,20.78
2023-01-12T08:14:43.599Z,20.78
2023-01-12T08:14:57.462Z,20.79
2023-01-12T08:15:25.179Z,20.79
2023-01-12T08:15:39.061Z,20.78
2023-01-12T08:15:52.982Z,20.78
2023-01-12T08:16:06.945Z,20.78
2023-01-12T08:16:21.025Z,20.78
2023-01-12T08:16:34.928Z,20.77
2023-01-12T08:16:48.794Z,20.77
2023-01-12T08:17:02.669Z,20.78
2023-01-12T08:17:16.531Z,20.77
2023-01-12T08:17:30.960Z,20.77
2023-01-12T08:17:44.823Z,20.78
2023-01-12T08:17:58.679Z,20.79
2023-01-12T08:18:12.561Z,20.79
2023-01-12T08:18:26.441Z,20.80
2023-01-12T08:18:40.301Z,20.79
2023-01-12T08:18:54.211Z,20.81
2023-01-12T08:19:08.073Z,20.81
2023-01-12T08:19:35.767Z,20.83
2023-01-12T08:19:49.655Z,20.84
2023-01-12T08:20:03.538Z,20.85
2023-01-12T08:20:17.445Z,20.86
2023-01-12T08:20:31.313Z,20.88
2023-01-12T08:20:45.175Z,20.87
2023-01-12T08:20:59.026Z,20.89
2023-01-12T08:21:12.896Z,20.89
2023-01-12T08:21:26.771Z,20.90
2023-01-12T08:21:40.678Z,20.92
2023-01-12T08:21:54.555Z,20.93
2023-01-12T08:22:08.416Z,20.94
2023-01-12T08:22:22.276Z,20.93
2023-01-12T08:22:36.139Z,20.95
2023-01-12T08:22:50.006Z,20.95
2023-01-12T08:23:03.878Z,20.97
2023-01-12T08:23:17.746Z,20.97
2023-01-12T08:23:45.490Z,21.00
2023-01-12T08:23:59.380Z,21.01
2023-01-12T08:24:13.233Z,21.02
2023-01-12T08:24:27.128Z,21.03
2023-01-12T08:24:40.995Z,21.05
2023-01-12T08:24:54.861Z,21.07
2023-01-12T08:25:08.721Z,21.08
2023-01-12T08:25:22.592Z,21.08
2023-01-12T08:25:36.457Z,21.11
2023-01-12T08:25:50.323Z,21.12
2023-01-12T08:26:05.406Z,21.14
2023-01-12T08:26:16.801Z,21.15
2023-01-12T08:26:44.553Z,21.17
2023-01-12T08:26:58.427Z,21.18
2023-01-12T08:27:12.288Z,21.19
2023-01-12T08:27:26.265Z,21.19
2023-01-12T08:27:40.145Z,21.20
2023-01-12T08:27:54.012Z,21.19
2023-01-12T08:28:07.896Z,21.21
2023-01-12T08:28:21.762Z,21.22
2023-01-12T08:28:35.639Z,21.23
2023-01-12T08:28:49.517Z,21.22
2023-01-12T08:29:03.384Z,21.22
2023-01-12T08:29:17.247Z,21.22
2023-01-12T08:29:31.117Z,21.22
2023-01-12T08:29:44.990Z,21.21
2023-01-12T08:29:58.861Z,21.20
2023-01-12T08:30:12.732Z,21.19
2023-01-12T08:30:26.646Z,21.17
2023-01-12T08:30:54.383Z,21.14
2023-01-12T08:31:08.363Z,21.14
2023-01-12T08:31:22.260Z,21.13
2023-01-12T08:31:36.170Z,21.13
2023-01-12T08:31:50.067Z,21.11
2023-01-12T08:32:04.847Z,21.10
2023-01-12T08:32:16.510Z,21.09
2023-01-12T08:32:30.416Z,21.07
2023-01-12T08:32:44.291Z,21.07
2023-01-12T08:32:58.195Z,21.05
2023-01-12T08:33:25.900Z,21.05
2023-01-12T08:33:39.763Z,21.05
2023-01-12T08:33:53.635Z,21.03
2023-01-12T08:34:07.489Z,21.05
2023-01-12T08:34:21.391Z,21.03
2023-01-12T08:34:35.261Z,21.02
2023-01-12T08:34:49.126Z,21.02
2023-01-12T08:35:02.994Z,21.00
2023-01-12T08:35:16.864Z,21.00
2023-01-12T08:35:30.732Z,21.00
2023-01-12T08:35:44.599Z,21.00
2023-01-12T08:35:58.466Z,20.97
2023-01-12T08:36:27.183Z,20.96
2023-01-12T08:36:42.995Z,20.96
2023-01-12T08:36:55.167Z,20.95
2023-01-12T08:37:09.061Z,20.94
2023-01-12T08:37:22.927Z,20.94
2023-01-12T08:37:36.789Z,20.92
2023-01-12T08:38:04.529Z,20.91
2023-01-12T08:38:18.404Z,20.90
2023-01-12T08:38:32.260Z,20.89
2023-01-12T08:38:46.121Z,20.89
2023-01-12T08:38:59.975Z,20.88
2023-01-12T08:39:13.899Z,20.87
2023-01-12T08:39:27.755Z,20.87
2023-01-12T08:39:41.630Z,20.87
2023-01-12T08:39:55.507Z,20.85
2023-01-12T08:40:09.370Z,20.85
2023-01-12T08:40:23.246Z,20.85
2023-01-12T08:40:37.125Z,20.83
2023-01-12T08:41:04.863Z,20.83
2023-01-12T08:41:18.748Z,20.82
2023-01-12T08:41:32.612Z,20.81
2023-01-12T08:41:46.493Z,20.80
2023-01-12T08:42:00.355Z,20.80
2023-01-12T08:42:14.224Z,20.78
2023-01-12T08:42:30.833Z,20.78
2023-01-12T08:42:42.965Z,20.77
2023-01-12T08:42:56.826Z,20.78
2023-01-12T08:43:10.716Z,20.77
2023-01-12T08:43:24.590Z,20.77
2023-01-12T08:43:38.471Z,20.75
2023-01-12T08:43:52.379Z,20.75
2023-01-12T08:44:06.243Z,20.74
2023-01-12T08:44:20.111Z,20.75
2023-01-12T08:44:33.996Z,20.74
2023-01-12T08:44:47.887Z,20.74
2023-01-12T08:45:15.593Z,20.73
2023-01-12T08:45:29.469Z,20.73
2023-01-12T08:45:43.349Z,20.72
2023-01-12T08:45:57.224Z,20.72
2023-01-12T08:46:11.232Z,20.70
2023-01-12T08:46:25.205Z,20.70
2023-01-12T08:46:39.207Z,20.71
2023-01-12T08:46:53.138Z,20.69
2023-01-12T08:47:07.022Z,20.66
2023-01-12T08:47:20.877Z,20.67
2023-01-12T08:47:34.753Z,20.67
2023-01-12T08:47:48.632Z,20.66
2023-01-12T08:48:02.489Z,20.65
2023-01-12T08:48:16.350Z,20.65
2023-01-12T08:48:30.213Z,20.65
2023-01-12T08:48:44.118Z,20.64
2023-01-12T08:48:57.993Z,20.63
2023-01-12T08:49:25.702Z,20.63
2023-01-12T08:49:39.566Z,20.63
2023-01-12T08:49:53.444Z,20.63
2023-01-12T08:50:07.304Z,20.63
2023-01-12T08:50:21.182Z,20.62
2023-01-12T08:50:35.057Z,20.63
2023-01-12T08:50:48.951Z,20.62
2023-01-12T08:51:02.814Z,20.61
2023-01-12T08:51:16.690Z,20.60
2023-01-12T08:51:30.555Z,20.60
2023-01-12T08:51:44.438Z,20.60
2023-01-12T08:51:58.403Z,20.57
2023-01-12T08:52:12.361Z,20.58
2023-01-12T08:52:26.370Z,20.59
2023-01-12T08:52:54.114Z,20.58
2023-01-12T08:53:07.989Z,20.57
2023-01-12T08:53:21.851Z,20.56
2023-01-12T08:53:35.779Z,20.55
2023-01-12T08:53:49.672Z,20.55
2023-01-12T08:54:03.538Z,20.55
2023-01-12T08:54:17.466Z,20.56
2023-01-12T08:54:31.337Z,20.54
2023-01-12T08:54:45.225Z,20.55
2023-01-12T08:54:59.087Z,20.55
2023-01-12T08:55:12.969Z,20.56
2023-01-12T08:55:26.834Z,20.56
2023-01-12T08:55:40.712Z,20.56
2023-01-12T08:55:54.593Z,20.56
2023-01-12T08:56:08.465Z,20.56
2023-01-12T08:56:22.332Z,20.57
2023-01-12T08:56:36.185Z,20.57
2023-01-12T08:57:03.914Z,20.57
2023-01-12T08:57:17.797Z,20.57
2023-01-12T08:57:31.695Z,20.57
2023-01-12T08:57:45.575Z,20.56
2023-01-12T08:57:59.456Z,20.56
2023-01-12T08:58:13.322Z,20.58
2023-01-12T08:58:27.200Z,20.57
2023-01-12T08:58:41.075Z,20.57
2023-01-12T08:58:54.988Z,20.57
2023-01-12T08:59:08.880Z,20.57
2023-01-12T08:59:22.781Z,20.58
2023-01-12T08:59:36.649Z,20.58
2023-01-12T09:00:04.361Z,20.59
2023-01-12T09:00:18.226Z,20.59
2023-01-12T09:00:32.136Z,20.60
2023-01-12T09:00:46.085Z,20.60
2023-01-12T09:01:00.107Z,20.61
2023-01-12T09:01:14.264Z,20.59
2023-01-12T09:01:28.360Z,20.60
2023-01-12T09:01:42.474Z,20.61
2023-01-12T09:01:56.497Z,20.61
2023-01-12T09:02:10.539Z,20.62
2023-01-12T09:02:24.559Z,20.62
2023-01-12T09:02:38.568Z,20.62
2023-01-12T09:02:52.457Z,20.62
2023-01-12T09:03:06.331Z,20.63
2023-01-12T09:03:20.188Z,20.62
2023-01-12T09:03:34.054Z,20.62
2023-01-12T09:03:47.924Z,20.63
2023-01-12T09:04:15.651Z,20.63
2023-01-12T09:04:29.571Z,20.64
2023-01-12T09:04:43.441Z,20.63
2023-01-12T09:04:57.293Z,20.64
2023-01-12T09:05:11.152Z,20.64
2023-01-12T09:05:25.029Z,20.65
2023-01-12T09:05:38.890Z,20.66
2023-01-12T09:05:52.759Z,20.66
2023-01-12T09:06:06.620Z,20.66
2023-01-12T09:06:20.507Z,20.65
2023-01-12T09:06:34.371Z,20.66
2023-01-12T09:06:48.233Z,20.66
2023-01-12T09:07:15.932Z,20.66
2023-01-12T09:07:29.792Z,20.66
2023-01-12T09:07:43.642Z,20.66
2023-01-12T09:07:57.503Z,20.68
2023-01-12T09:08:11.377Z,20.67
2023-01-12T09:08:25.240Z,20.67
2023-01-12T09:08:39.121Z,20.66
2023-01-12T09:08:52.984Z,20.66
2023-01-12T09:09:06.854Z,20.67
2023-01-12T09:09:20.740Z,20.66
2023-01-12T09:09:34.595Z,20.67
2023-01-12T09:09:48.463Z,20.69
2023-01-12T09:10:02.322Z,20.68
2023-01-12T09:10:16.197Z,20.68
2023-01-12T09:10:30.068Z,20.68
2023-01-12T09:10:43.939Z,20.68
2023-01-12T09:10:57.806Z,20.69
2023-01-12T09:11:25.523Z,20.68
2023-01-12T09:11:39.391Z,20.70
2023-01-12T09:11:53.270Z,20.70
2023-01-12T09:12:07.128Z,20.68
2023-01-12T09:12:23.522Z,20.71
2023-01-12T09:12:35.659Z,20.72
2023-01-12T09:12:49.522Z,20.73
2023-01-12T09:13:03.404Z,20.73
2023-01-12T09:13:17.269Z,20.74
2023-01-12T09:13:31.121Z,20.75
2023-01-12T09:13:44.999Z,20.74
2023-01-12T09:13:58.909Z,20.74
2023-01-12T09:14:12.799Z,20.75
2023-01-12T09:14:26.661Z,20.76
2023-01-12T09:14:40.513Z,20.75
2023-01-12T09:14:54.369Z,20.75
2023-01-12T09:15:08.230Z,20.77
2023-01-12T09:15:35.958Z,20.78
2023-01-12T09:16:01.436Z,20.78
2023-01-12T09:16:12.173Z,20.78
2023-01-12T09:16:17.392Z,20.79
2023-01-12T09:16:31.360Z,20.79
2023-01-12T09:16:45.373Z,20.78
2023-01-12T09:16:59.384Z,20.79
2023-01-12T09:17:13.922Z,20.79
2023-01-12T09:17:27.796Z,20.81
2023-01-12T09:17:41.673Z,20.83
2023-01-12T09:17:55.542Z,20.81
2023-01-12T09:18:09.470Z,20.82
2023-01-12T09:19:27.272Z,20.79
2023-01-12T09:19:41.145Z,20.85
2023-01-12T09:19:55.009Z,20.86
2023-01-12T09:20:08.878Z,20.85
2023-01-12T09:20:22.732Z,20.87
2023-01-12T09:20:36.592Z,20.87
2023-01-12T09:20:50.455Z,20.87
2023-01-12T09:21:04.331Z,20.87
2023-01-12T09:21:18.239Z,20.88
2023-01-12T09:21:32.158Z,20.89
2023-01-12T09:21:46.030Z,20.88
2023-01-12T09:21:59.915Z,20.89
2023-01-12T09:22:13.789Z,20.90
2023-01-12T09:22:27.655Z,20.90
2023-01-12T09:22:41.518Z,20.91
2023-01-12T09:22:55.396Z,20.92
2023-01-12T09:23:09.273Z,20.91
2023-01-12T09:23:23.149Z,20.92
2023-01-12T09:23:37.010Z,20.92
2023-01-12T09:23:50.870Z,20.92
2023-01-12T09:24:04.754Z,20.93
2023-01-12T09:24:18.627Z,20.94
2023-01-12T09:24:32.530Z,20.93
2023-01-12T09:24:46.458Z,20.94
2023-01-12T09:25:00.314Z,20.94
2023-01-12T09:25:14.192Z,20.94
2023-01-12T09:25:28.052Z,20.96
2023-01-12T09:25:41.926Z,20.95
2023-01-12T09:25:55.784Z,20.97
2023-01-12T09:26:09.651Z,20.97
2023-01-12T09:26:23.523Z,20.96
2023-01-12T09:26:37.392Z,20.97
2023-01-12T09:26:51.265Z,20.97
2023-01-12T09:27:05.124Z,20.97
2023-01-12T09:27:18.990Z,20.98
2023-01-12T09:27:32.864Z,20.98
2023-01-12T09:27:46.744Z,20.98
2023-01-12T09:28:00.600Z,20.97
2023-01-12T09:28:14.462Z,20.98
2023-01-12T09:28:28.326Z,20.98
2023-01-12T09:28:42.193Z,20.98
2023-01-12T09:28:56.063Z,20.97
2023-01-12T09:29:09.933Z,20.98
2023-01-12T09:29:23.802Z,20.98
2023-01-12T09:29:37.669Z,20.99
2023-01-12T09:29:51.560Z,20.97
2023-01-12T09:30:05.429Z,20.98
2023-01-12T09:30:19.293Z,20.97
2023-01-12T09:30:33.168Z,20.97
2023-01-12T09:30:47.055Z,20.97
2023-01-12T09:31:00.914Z,20.97
2023-01-12T09:31:14.815Z,20.97
2023-01-12T09:31:28.847Z,20.97
2023-01-12T09:31:42.834Z,20.97
2023-01-12T09:31:56.894Z,20.97
2023-01-12T09:32:10.797Z,20.97
2023-01-12T09:32:29.121Z,20.97
2023-01-12T09:32:38.381Z,20.97
2023-01-12T09:32:52.254Z,20.98
2023-01-12T09:33:06.133Z,20.98
2023-01-12T09:33:20.036Z,20.96
2023-01-12T09:33:33.929Z,20.98
2023-01-12T09:33:47.834Z,20.98
2023-01-12T09:34:01.691Z,20.98
2023-01-12T09:34:15.568Z,20.98
2023-01-12T09:34:29.539Z,20.98
2023-01-12T09:34:43.450Z,20.97
2023-01-12T09:34:57.347Z,20.98
2023-01-12T09:35:11.252Z,20.98
2023-01-12T09:35:25.126Z,20.99
2023-01-12T09:35:38.999Z,20.98
2023-01-12T09:35:52.873Z,20.99
2023-01-12T09:36:20.607Z,20.99
2023-01-12T09:36:34.490Z,21.00
2023-01-12T09:36:48.361Z,20.99
2023-01-12T09:37:02.217Z,20.99
2023-01-12T09:37:16.077Z,20.98
2023-01-12T09:37:29.979Z,20.99
2023-01-12T09:37:43.841Z,20.99
2023-01-12T09:37:57.715Z,20.99
2023-01-12T09:38:11.581Z,20.99
2023-01-12T09:38:25.448Z,21.00
2023-01-12T09:38:39.312Z,21.00
2023-01-12T09:38:53.193Z,21.00
2023-01-12T09:39:09.909Z,20.99
2023-01-12T09:39:27.692Z,21.00
2023-01-12T09:39:35.521Z,21.00
2023-01-12T09:39:49.386Z,21.00
2023-01-12T09:40:03.260Z,21.00
2023-01-12T09:40:17.131Z,21.01
2023-01-12T09:40:30.983Z,21.01
2023-01-12T09:40:44.843Z,21.00
2023-01-12T09:40:59.726Z,20.99
2023-01-12T09:41:12.592Z,21.02
2023-01-12T09:41:26.472Z,21.01
2023-01-12T09:41:40.321Z,21.01
2023-01-12T09:41:54.192Z,21.02
2023-01-12T09:42:08.079Z,21.00
2023-01-12T09:42:21.951Z,21.02
2023-01-12T09:42:35.810Z,21.02
2023-01-12T09:42:49.689Z,21.02
2023-01-12T09:43:03.567Z,21.03
2023-01-12T09:43:31.289Z,21.02
2023-01-12T09:43:45.138Z,21.03
2023-01-12T09:43:59.023Z,21.03
2023-01-12T09:44:12.889Z,21.02
2023-01-12T09:44:26.783Z,21.02
2023-01-12T09:44:40.657Z,21.04
2023-01-12T09:44:54.536Z,21.04
2023-01-12T09:45:08.415Z,21.04
2023-01-12T09:45:22.289Z,21.05
2023-01-12T09:45:36.226Z,21.04
2023-01-12T09:45:50.203Z,21.04
2023-01-12T09:46:04.254Z,21.05
2023-01-12T09:46:18.148Z,21.05
2023-01-12T09:46:32.021Z,21.04
2023-01-12T09:46:45.884Z,21.05
2023-01-12T09:46:59.760Z,21.06
2023-01-12T09:47:13.685Z,21.05
2023-01-12T09:47:41.409Z,21.06
2023-01-12T09:47:55.296Z,21.07
2023-01-12T09:48:09.212Z,21.06
2023-01-12T09:48:23.123Z,21.08
2023-01-12T09:48:36.991Z,21.07
2023-01-12T09:48:50.877Z,21.09
2023-01-12T09:49:04.819Z,21.08
2023-01-12T09:49:18.689Z,21.09
2023-01-12T09:49:32.583Z,21.09
2023-01-12T09:49:46.465Z,21.10
2023-01-12T09:50:08.710Z,21.10
2023-01-12T09:50:14.093Z,21.09
2023-01-12T09:50:41.830Z,21.10
2023-01-12T09:50:55.698Z,21.11
2023-01-12T09:51:09.583Z,21.10
2023-01-12T09:51:23.455Z,21.10
2023-01-12T09:51:37.407Z,21.10
2023-01-12T09:51:51.276Z,21.11
2023-01-12T09:52:05.150Z,21.11
2023-01-12T09:52:19.036Z,21.12
2023-01-12T09:52:32.928Z,21.12
2023-01-12T09:52:46.788Z,21.13
2023-01-12T09:53:00.653Z,21.13
2023-01-12T09:53:14.520Z,21.13
2023-01-12T09:53:28.402Z,21.14
2023-01-12T09:53:42.270Z,21.15
2023-01-12T09:53:56.129Z,21.15
2023-01-12T09:54:10.002Z,21.14
2023-01-12T09:54:23.893Z,21.16
2023-01-12T09:54:51.614Z,21.15
2023-01-12T09:55:05.494Z,21.15
2023-01-12T09:55:19.383Z,21.15
2023-01-12T09:55:33.249Z,21.15
2023-01-12T09:55:47.113Z,21.17
2023-01-12T09:56:00.973Z,21.16
2023-01-12T09:56:14.886Z,21.17
2023-01-12T09:56:28.759Z,21.18
2023-01-12T09:56:42.636Z,21.19
2023-01-12T09:56:56.501Z,21.17
2023-01-12T09:57:12.831Z,21.19
2023-01-12T09:57:29.274Z,21.18
2023-01-12T09:57:51.323Z,21.19
2023-01-12T09:58:05.190Z,21.20
2023-01-12T09:58:19.058Z,21.20
2023-01-12T09:58:32.933Z,21.20
2023-01-12T09:58:46.815Z,21.20
2023-01-12T09:59:00.684Z,21.21
2023-01-12T09:59:16.534Z,21.20
2023-01-12T09:59:28.995Z,21.22
2023-01-12T09:59:42.880Z,21.23
2023-01-12T09:59:56.754Z,21.22
2023-01-12T10:00:10.629Z,21.23
2023-01-12T10:00:24.496Z,21.25
2023-01-12T10:00:38.374Z,21.24
2023-01-12T10:00:52.453Z,21.26
2023-01-12T10:01:07.848Z,21.26
2023-01-12T10:01:28.682Z,21.27
2023-01-12T10:01:34.077Z,21.28
2023-01-12T10:02:01.956Z,21.28
2023-01-12T10:02:15.970Z,21.29
2023-01-12T10:02:31.886Z,21.29
2023-01-12T10:02:44.533Z,21.29
2023-01-12T10:02:58.641Z,21.30
2023-01-12T10:03:12.586Z,21.29
2023-01-12T10:03:26.534Z,21.30
2023-01-12T10:03:40.456Z,21.30
2023-01-12T10:03:54.358Z,21.31
2023-01-12T10:04:08.246Z,21.32
2023-01-12T10:04:22.112Z,21.33
2023-01-12T10:04:35.986Z,21.33
2023-01-12T10:04:49.855Z,21.32
2023-01-12T10:05:03.724Z,21.34
2023-01-12T10:05:17.589Z,21.34
2023-01-12T10:05:39.157Z,21.35
2023-01-12T10:05:45.184Z,21.35
2023-01-12T10:05:59.065Z,21.35
2023-01-12T10:06:12.946Z,21.35
2023-01-12T10:06:26.810Z,21.34
2023-01-12T10:06:40.675Z,21.35
2023-01-12T10:06:54.532Z,21.37
2023-01-12T10:07:08.479Z,21.36
2023-01-12T10:07:22.417Z,21.37
2023-01-12T10:07:36.283Z,21.37
2023-01-12T10:07:50.152Z,21.37
2023-01-12T10:08:04.017Z,21.39
2023-01-12T10:08:17.890Z,21.39
2023-01-12T10:08:31.766Z,21.39
2023-01-12T10:08:45.627Z,21.39
2023-01-12T10:08:59.499Z,21.38
2023-01-12T10:09:13.402Z,21.40
2023-01-12T10:09:41.236Z,21.40
2023-01-12T10:09:55.121Z,21.41
2023-01-12T10:10:09.005Z,21.42
2023-01-12T10:10:22.880Z,21.42
2023-01-12T10:10:36.735Z,21.42
2023-01-12T10:10:50.662Z,21.42
2023-01-12T10:11:04.571Z,21.44
2023-01-12T10:11:18.454Z,21.44
2023-01-12T10:11:32.318Z,21.44
2023-01-12T10:11:46.212Z,21.44
2023-01-12T10:12:00.131Z,21.44
2023-01-12T10:12:14.010Z,21.44
2023-01-12T10:12:27.872Z,21.44
2023-01-12T10:12:41.740Z,21.45
2023-01-12T10:12:55.597Z,21.45
2023-01-12T10:13:09.469Z,21.44
2023-01-12T10:13:23.341Z,21.46
2023-01-12T10:13:51.763Z,21.46
2023-01-12T10:14:06.504Z,21.45
2023-01-12T10:14:20.710Z,21.46
2023-01-12T10:14:34.992Z,21.46
2023-01-12T10:14:49.051Z,21.47
2023-01-12T10:15:03.075Z,21.46
2023-01-12T10:15:17.135Z,21.48
2023-01-12T10:15:31.083Z,21.48
2023-01-12T10:15:44.951Z,21.47
2023-01-12T10:15:58.846Z,21.48
2023-01-12T10:16:12.736Z,21.48
2023-01-12T10:16:26.676Z,21.47
2023-01-12T10:16:40.686Z,21.48
2023-01-12T10:16:54.601Z,21.46
2023-01-12T10:17:22.316Z,21.45
2023-01-12T10:17:50.365Z,21.45
2023-01-12T10:17:51.664Z,21.45
2023-01-12T10:18:03.717Z,21.44
2023-01-12T10:18:17.597Z,21.43
2023-01-12T10:18:31.488Z,21.43
2023-01-12T10:18:47.424Z,21.42
2023-01-12T10:18:58.984Z,21.41
2023-01-12T10:19:12.867Z,21.41
2023-01-12T10:19:26.754Z,21.42
2023-01-12T10:19:40.642Z,21.42
2023-01-12T10:19:54.535Z,21.42
2023-01-12T10:20:08.409Z,21.41
2023-01-12T10:20:22.286Z,21.41
2023-01-12T10:20:36.156Z,21.41
2023-01-12T10:20:50.049Z,21.42
2023-01-12T10:21:03.917Z,21.40
2023-01-12T10:21:31.699Z,21.40
2023-01-12T10:21:45.623Z,21.40
2023-01-12T10:21:59.497Z,21.40
2023-01-12T10:22:13.393Z,21.40
2023-01-12T10:22:27.261Z,21.40
2023-01-12T10:22:41.129Z,21.39
2023-01-12T10:22:55.025Z,21.39
2023-01-12T10:23:08.889Z,21.38
2023-01-12T10:23:22.769Z,21.37
2023-01-12T10:23:36.643Z,21.37
2023-01-12T10:23:50.510Z,21.36
2023-01-12T10:24:04.369Z,21.36
2023-01-12T10:24:32.077Z,21.36
2023-01-12T10:24:45.964Z,21.36
2023-01-12T10:24:59.862Z,21.35
2023-01-12T10:25:13.727Z,21.37
2023-01-12T10:25:27.592Z,21.37
2023-01-12T10:25:41.454Z,21.36
2023-01-12T10:25:55.331Z,21.36
2023-01-12T10:26:09.222Z,21.36
2023-01-12T10:26:23.167Z,21.36
2023-01-12T10:26:37.041Z,21.37
2023-01-12T10:26:50.940Z,21.36
2023-01-12T10:27:04.793Z,21.36
2023-01-12T10:27:18.675Z,21.36
2023-01-12T10:27:32.539Z,21.34
2023-01-12T10:27:46.435Z,21.34
2023-01-12T10:28:00.301Z,21.33
2023-01-12T10:28:14.154Z,21.34
2023-01-12T10:28:41.883Z,21.34
2023-01-12T10:28:55.758Z,21.32
2023-01-12T10:29:09.616Z,21.33
2023-01-12T10:29:23.494Z,21.33
2023-01-12T10:29:37.395Z,21.32
2023-01-12T10:29:51.276Z,21.31
2023-01-12T10:30:05.139Z,21.31
2023-01-12T10:30:19.005Z,21.30
2023-01-12T10:30:32.859Z,21.30
2023-01-12T10:30:46.725Z,21.31
2023-01-12T10:31:00.630Z,21.30
2023-01-12T10:31:14.572Z,21.30
2023-01-12T10:31:28.482Z,21.31
2023-01-12T10:31:42.375Z,21.31
2023-01-12T10:31:56.491Z,21.31
2023-01-12T10:32:10.380Z,21.33
2023-01-12T10:32:24.694Z,21.32
2023-01-12T10:32:52.006Z,21.34
2023-01-12T10:33:06.096Z,21.34
2023-01-12T10:33:19.979Z,21.35
2023-01-12T10:33:33.838Z,21.36
2023-01-12T10:33:47.698Z,21.34
2023-01-12T10:34:01.615Z,21.35
2023-01-12T10:34:15.498Z,21.35
2023-01-12T10:34:29.368Z,21.34
2023-01-12T10:34:43.231Z,21.32
2023-01-12T10:34:57.104Z,21.32
2023-01-12T10:35:10.966Z,21.32
2023-01-12T10:35:24.862Z,21.31
2023-01-12T10:35:52.648Z,21.32
2023-01-12T10:36:06.536Z,21.33
2023-01-12T10:36:20.408Z,21.31
2023-01-12T10:36:34.280Z,21.32
2023-01-12T10:36:48.158Z,21.32
2023-01-12T10:37:02.034Z,21.32
2023-01-12T10:37:15.898Z,21.31
2023-01-12T10:37:29.778Z,21.31
2023-01-12T10:37:43.637Z,21.31
2023-01-12T10:37:57.525Z,21.29
2023-01-12T10:38:11.386Z,21.29
2023-01-12T10:38:25.252Z,21.30
2023-01-12T10:38:39.141Z,21.31
2023-01-12T10:38:53.020Z,21.31
2023-01-12T10:39:06.891Z,21.31
2023-01-12T10:39:20.744Z,21.31
2023-01-12T10:39:34.636Z,21.32
2023-01-12T10:40:02.406Z,21.31
2023-01-12T10:40:16.286Z,21.31
2023-01-12T10:40:30.375Z,21.32
2023-01-12T10:40:44.321Z,21.31
2023-01-12T10:40:58.188Z,21.31
2023-01-12T10:41:12.054Z,21.31
2023-01-12T10:41:25.960Z,21.30
2023-01-12T10:41:39.838Z,21.30
2023-01-12T10:41:53.711Z,21.30
2023-01-12T10:42:07.568Z,21.30
2023-01-12T10:42:21.438Z,21.30
2023-01-12T10:42:35.308Z,21.30
2023-01-12T10:42:49.164Z,21.29
2023-01-12T10:43:06.688Z,21.30
2023-01-12T10:43:20.197Z,21.30
2023-01-12T10:43:29.319Z,21.29
2023-01-12T10:43:43.208Z,21.29
2023-01-12T10:43:57.089Z,21.30
2023-01-12T10:44:10.960Z,21.29
2023-01-12T10:44:24.834Z,21.29
2023-01-12T10:44:38.732Z,21.29
2023-01-12T10:44:52.596Z,21.29
2023-01-12T10:45:06.472Z,21.29
2023-01-12T10:45:21.359Z,21.29
2023-01-12T10:45:35.371Z,21.28
2023-01-12T10:45:49.323Z,21.28
2023-01-12T10:46:03.300Z,21.28
2023-01-12T10:46:17.355Z,21.28
2023-01-12T10:46:31.345Z,21.28
2023-01-12T10:46:45.220Z,21.30
2023-01-12T10:46:59.102Z,21.28
2023-01-12T10:47:12.957Z,21.29